SCBASCPQ

Guest
Details From SCBA - Balmaceda
To SCPQ - Mocopulli
Flight Number -
Tags generated
Created
Modified
Stats Distance 242 nm / 448 km
Max Altitude 12,000 ft / 3,658 m
Waypoints 4
Social Downloads 3
Likes 0
Share VATSIM

Download

Looking for another format? Having issues loading an existing format? Contact us
Advertisement - Login to hide

Notes

Basic altitude profile: - Ascent Rate: 2500ft/min - Ascent Speed: 250kts - Cruise Altitude: 25000ft - Cruise Speed: 310kts - Descent Rate: 1500ft/min - Descent Speed: 250kts Options: - Use NATs: yes - Use PACOTS: yes - Use low airways: yes - Use high airways: yes

Route

SCBA BALNB G550 TEN SCPQ

ID Type Via Altitude Latitude Longitude Leg Dist Tot Dist Heading (true) Name
O SCBA APT - 0 ft / 0 m -45.91602˚ -71.68947˚ - 0 nm - Balmaceda
BALNB FIX - 100 ft / 30 m -45.91944˚ -71.69833˚ 0 nm 0 nm 241° / 241° -
TEN NDB G550 (AWY-LO) 12,000 ft / 3,658 m -42.92472˚ -72.71528˚ 185 nm 185 nm 346° / 347° CHAITEN NDB
O SCPQ APT - 0 ft / 0 m -42.34028˚ -73.71583˚ 56 nm 241 nm 308° / 309° Mocopulli

Altitude Profile

Advertisement - Login to hide

Weather


0- 5 10 15 20 25 30 35+ Temperature / ° C

Clouds and Precipitation
Forecast for 2017-12-12 12:00 UTC. Updated 2 hours ago

Ground ~20,000 ft ~40,000 ft Winds

SCBA

Details ICAO SCBA (BBA)
Name Balmaceda
Region Chile
Timezone America/Santiago (UTC-3.0)
Stats Elevation 1,654 ft / 504 m (AMSL)
Location -45.916025° -71.689470°
Runways 1
Magnetic Variation 9.888° E

METAR

SCBA 120800Z AUTO 32019KT CAVOK 13/08 Q1007

Decode

TAF

TAF SCBA 120412Z 1206/1306 30020KT CAVOK TN08/1210Z TX19/1219Z TEMPO 1207/1210 9999 SCT040

Decode

Departure Runways

ID Width Length Bearing (true) Bearing (mag) Surface Threshold Offset Overrun Length
09 148 ft / 45 m 8,213 ft / 2,503 m 89.01° 79.12° Asphalt 0 ft / 0 m 180 ft / 55 m
27 148 ft / 45 m 8,213 ft / 2,503 m 268.99° 259.10° Asphalt 0 ft / 0 m 190 ft / 58 m

SCPQ

Details ICAO SCPQ
Name Mocopulli
Region Chile
Timezone America/Santiago (UTC-3.0)
Stats Elevation 567 ft / 173 m (AMSL)
Location -42.340278° -73.715833°
Runways 1
Magnetic Variation 9.519° E

METAR

SCPQ 120800Z AUTO 17004KT 1000 R35/0600V1900D FG VV002 11/10 Q1013

Decode

TAF

Not found

Destination Runways

ID Width Length Bearing (true) Bearing (mag) Surface Threshold Offset Overrun Length
17 148 ft / 45 m 6,568 ft / 2,002 m 184.00° 174.48° Asphalt 0 ft / 0 m 0 ft / 0 m
35 148 ft / 45 m 6,568 ft / 2,002 m 4.00° 354.48° Asphalt 0 ft / 0 m 0 ft / 0 m

Approach Navaids

Runway Type Ident Frequency Range Bearing (true) Bearing (mag) Slope Elevation
17 Localiser IMCI 109.90 MHz 18 nm / 33 km 183.99° 174.47° - 492 ft / 150 m (AMSL)
17 Glidescope IMCI 109.90 MHz 50 nm / 93 km 184.00° 174.48° 3.00° 492 ft / 150 m (AMSL)

Popular Alternatives